Cannon Air Force Base
KCVS : now visible

Airfield :











YOU CAN JOIN US ON...

 
LOGIN :

Register | Disclaimer

   EN    FR    IT 

 









Legend :    VFR   Marginal VFR   IFR   Intensive IFR   Very Intensive IFR
Visi :
Ceiling :
>= 8 km
>= 3000ft
5 to 8 km
1000 to 3000 ft
1500m to 5 km
500 to 1000 ft
800 to 1500m
200 to 500 ft
< 800m
< 200 ft
Symbols :   Thunderstorms  Fog  Heavy snow  Heavy precipitations  Wind > 20 kt






- Airport Elevation : 4295 ft


KCVS - Cannon Air Force Base

CURRENT METAR :
  • 141058Z 11011KT 10SM OVC014 07/04 A3011 RMK AO2A CIG 012 RWY31 SLP169 T00680038 $

EXPIRED METARs :
  • 141028Z 11015KT 10SM OVC014 07/03 A3011 RMK AO2A SLP169 $
  • 141008Z 10014KT 10SM BKN018 OVC026 07/03 A3010 RMK AO2A SLP166 $
  • 140958Z 09014KT 10SM BKN021 OVC026 07/03 A3010 RMK AO2A CIG 021V026 BKN V SCT SLP166 T00740025 $
  • 140933Z 08015KT 10SM BKN027 OVC044 08/01 A3010 RMK AO2A CIG 027V044 SLP166 $
  • 140858Z 08013KT 10SM FEW029 OVC043 08/01 A3011 RMK AO2A SLP169 T00780005 58001 $

TAF TAF KCVS
Valid from the 14 at 10:00 until the 15 at 16:00 UTC


141000Z 1410/1516 12012KT 9999 OVC025 QNH3011INS
BECMG 1411/1412 12010KT 9000 BR OVC015 QNH3011INS
BECMG 1412/1413 11010KT 8000 BR OVC006 QNH3012INS
BECMG 1414/1415 10010KT 8000 -RA BR OVC006 QNH3014INS
BECMG 1419/1420 12012KT 8000 -RA BR OVC015 QNH3011INS
BECMG 1422/1423 12010G15KT 9999 NSW OVC020 QNH3003INS
BECMG 1502/1503 12012KT 9000 BR OVC005 QNH2998INS
BECMG 1510/1511 11006KT 8000 -RA BR OVC005 QNH3000INS TX13/1422Z TN06/1413Z
KZAB FIR / North America



MET'MAP, your aeronautical weather chart ! - Copyright ORBIFLY December 2007 - Disclaimer

ORBIFLY MET'MAP TEAM :

Programming & Development : Alexandra Zaïnal
Concept & original design : Baudouin d'Aumeries
Assistance for programming : Marc-Olivier Méhu
Technical & hardware support : Manuel Goepfert

Contact : metmap@orbifly.com




SOURCES & CREDITS :

   NOAA       Earth
Advisory